sensor_id;sensor_type;location;lat;lon;timestamp;P1;durP1;ratioP1;P2;durP2;ratioP2
23290;SDS011;11814;44.686;10.842;2023-08-12T00:00:18;4.45;;;2.53;;
23290;SDS011;11814;44.686;10.842;2023-08-12T00:02:44;3.45;;;2.38;;
23290;SDS011;11814;44.686;10.842;2023-08-12T00:05:11;5.57;;;2.38;;
23290;SDS011;11814;44.686;10.842;2023-08-12T00:07:37;6.03;;;2.05;;
23290;SDS011;11814;44.686;10.842;2023-08-12T00:10:06;5.07;;;2.22;;
23290;SDS011;11814;44.686;10.842;2023-08-12T00:12:34;4.00;;;2.28;;
23290;SDS011;11814;44.686;10.842;2023-08-12T00:15:00;5.03;;;2.30;;
23290;SDS011;11814;44.686;10.842;2023-08-12T00:17:26;5.93;;;2.50;;
23290;SDS011;11814;44.686;10.842;2023-08-12T00:19:52;3.30;;;2.58;;
23290;SDS011;11814;44.686;10.842;2023-08-12T00:22:17;7.68;;;2.65;;
23290;SDS011;11814;44.686;10.842;2023-08-12T00:24:43;8.82;;;2.60;;
23290;SDS011;11814;44.686;10.842;2023-08-12T00:27:09;4.78;;;2.20;;
23290;SDS011;11814;44.686;10.842;2023-08-12T00:29:35;5.05;;;2.60;;
23290;SDS011;11814;44.686;10.842;2023-08-12T00:32:01;7.75;;;2.45;;
23290;SDS011;11814;44.686;10.842;2023-08-12T00:34:27;4.15;;;2.28;;
23290;SDS011;11814;44.686;10.842;2023-08-12T00:36:53;5.57;;;2.53;;
23290;SDS011;11814;44.686;10.842;2023-08-12T00:39:19;4.05;;;2.63;;
23290;SDS011;11814;44.686;10.842;2023-08-12T00:41:45;4.60;;;2.50;;
23290;SDS011;11814;44.686;10.842;2023-08-12T00:44:10;4.45;;;2.33;;
23290;SDS011;11814;44.686;10.842;2023-08-12T00:46:37;6.43;;;2.55;;
23290;SDS011;11814;44.686;10.842;2023-08-12T00:49:04;4.22;;;2.75;;
23290;SDS011;11814;44.686;10.842;2023-08-12T00:51:29;5.93;;;2.90;;
23290;SDS011;11814;44.686;10.842;2023-08-12T00:53:57;4.18;;;2.92;;
23290;SDS011;11814;44.686;10.842;2023-08-12T00:56:23;7.10;;;2.70;;
23290;SDS011;11814;44.686;10.842;2023-08-12T00:58:52;6.70;;;2.65;;
23290;SDS011;11814;44.686;10.842;2023-08-12T01:01:18;6.10;;;2.80;;
23290;SDS011;11814;44.686;10.842;2023-08-12T01:03:45;5.15;;;2.50;;
23290;SDS011;11814;44.686;10.842;2023-08-12T01:06:11;4.85;;;2.50;;
23290;SDS011;11814;44.686;10.842;2023-08-12T01:08:37;7.88;;;2.90;;
23290;SDS011;11814;44.686;10.842;2023-08-12T01:11:18;6.63;;;2.67;;
23290;SDS011;11814;44.686;10.842;2023-08-12T01:14:04;6.30;;;2.35;;
23290;SDS011;11814;44.686;10.842;2023-08-12T01:16:51;4.57;;;2.72;;
23290;SDS011;11814;44.686;10.842;2023-08-12T01:19:33;6.38;;;2.92;;
23290;SDS011;11814;44.686;10.842;2023-08-12T01:22:01;4.75;;;2.70;;
23290;SDS011;11814;44.686;10.842;2023-08-12T01:24:34;4.20;;;2.63;;
23290;SDS011;11814;44.686;10.842;2023-08-12T01:27:01;3.88;;;2.60;;
23290;SDS011;11814;44.686;10.842;2023-08-12T01:29:27;6.65;;;2.58;;
23290;SDS011;11814;44.686;10.842;2023-08-12T01:32:10;4.80;;;3.00;;
23290;SDS011;11814;44.686;10.842;2023-08-12T01:37:42;4.25;;;2.90;;
23290;SDS011;11814;44.686;10.842;2023-08-12T01:40:08;4.88;;;2.83;;
23290;SDS011;11814;44.686;10.842;2023-08-12T01:42:35;5.13;;;3.15;;
23290;SDS011;11814;44.686;10.842;2023-08-12T01:45:02;6.88;;;2.65;;
23290;SDS011;11814;44.686;10.842;2023-08-12T01:47:28;3.70;;;2.88;;
23290;SDS011;11814;44.686;10.842;2023-08-12T01:49:54;4.63;;;2.70;;
23290;SDS011;11814;44.686;10.842;2023-08-12T01:52:20;4.50;;;2.83;;
23290;SDS011;11814;44.686;10.842;2023-08-12T01:54:46;3.10;;;2.60;;
23290;SDS011;11814;44.686;10.842;2023-08-12T01:57:12;5.72;;;3.10;;
23290;SDS011;11814;44.686;10.842;2023-08-12T01:59:38;10.55;;;3.22;;
23290;SDS011;11814;44.686;10.842;2023-08-12T02:02:03;3.25;;;2.72;;
23290;SDS011;11814;44.686;10.842;2023-08-12T02:04:29;4.85;;;2.92;;
23290;SDS011;11814;44.686;10.842;2023-08-12T02:06:55;3.97;;;2.92;;
23290;SDS011;11814;44.686;10.842;2023-08-12T02:09:21;5.78;;;3.00;;
23290;SDS011;11814;44.686;10.842;2023-08-12T02:11:47;4.40;;;3.30;;
23290;SDS011;11814;44.686;10.842;2023-08-12T02:14:14;7.07;;;3.25;;
23290;SDS011;11814;44.686;10.842;2023-08-12T02:16:39;5.80;;;3.25;;
23290;SDS011;11814;44.686;10.842;2023-08-12T02:19:05;6.20;;;3.80;;
23290;SDS011;11814;44.686;10.842;2023-08-12T02:21:31;3.92;;;3.30;;
23290;SDS011;11814;44.686;10.842;2023-08-12T02:23:56;4.72;;;4.32;;
23290;SDS011;11814;44.686;10.842;2023-08-12T02:26:22;7.65;;;4.30;;
23290;SDS011;11814;44.686;10.842;2023-08-12T02:28:48;5.80;;;4.53;;
23290;SDS011;11814;44.686;10.842;2023-08-12T02:31:15;9.13;;;5.13;;
23290;SDS011;11814;44.686;10.842;2023-08-12T02:33:41;5.68;;;5.00;;
23290;SDS011;11814;44.686;10.842;2023-08-12T02:36:08;6.28;;;5.07;;
23290;SDS011;11814;44.686;10.842;2023-08-12T02:38:34;9.35;;;5.03;;
23290;SDS011;11814;44.686;10.842;2023-08-12T02:40:59;8.93;;;5.28;;
23290;SDS011;11814;44.686;10.842;2023-08-12T02:43:25;7.88;;;5.38;;
23290;SDS011;11814;44.686;10.842;2023-08-12T02:45:51;8.93;;;5.80;;
23290;SDS011;11814;44.686;10.842;2023-08-12T02:48:17;6.85;;;5.55;;
23290;SDS011;11814;44.686;10.842;2023-08-12T02:50:42;7.13;;;5.85;;
23290;SDS011;11814;44.686;10.842;2023-08-12T02:53:08;7.20;;;5.80;;
23290;SDS011;11814;44.686;10.842;2023-08-12T02:55:34;7.40;;;6.18;;
23290;SDS011;11814;44.686;10.842;2023-08-12T02:58:00;7.70;;;6.10;;
23290;SDS011;11814;44.686;10.842;2023-08-12T03:00:26;6.90;;;5.28;;
23290;SDS011;11814;44.686;10.842;2023-08-12T03:02:53;6.93;;;5.53;;
23290;SDS011;11814;44.686;10.842;2023-08-12T03:05:20;7.93;;;5.53;;
23290;SDS011;11814;44.686;10.842;2023-08-12T03:07:47;9.20;;;6.10;;
23290;SDS011;11814;44.686;10.842;2023-08-12T03:10:13;7.43;;;6.05;;
23290;SDS011;11814;44.686;10.842;2023-08-12T03:12:38;9.18;;;5.95;;
23290;SDS011;11814;44.686;10.842;2023-08-12T03:15:08;8.52;;;6.03;;
23290;SDS011;11814;44.686;10.842;2023-08-12T03:17:35;8.15;;;5.43;;
23290;SDS011;11814;44.686;10.842;2023-08-12T03:20:00;7.70;;;5.00;;
23290;SDS011;11814;44.686;10.842;2023-08-12T03:22:29;6.47;;;5.25;;
23290;SDS011;11814;44.686;10.842;2023-08-12T03:24:55;10.65;;;5.47;;
23290;SDS011;11814;44.686;10.842;2023-08-12T03:27:21;8.35;;;6.20;;
23290;SDS011;11814;44.686;10.842;2023-08-12T03:29:46;8.77;;;5.72;;
23290;SDS011;11814;44.686;10.842;2023-08-12T03:32:12;11.30;;;6.32;;
23290;SDS011;11814;44.686;10.842;2023-08-12T03:34:38;11.68;;;6.45;;
23290;SDS011;11814;44.686;10.842;2023-08-12T03:37:04;9.65;;;6.07;;
23290;SDS011;11814;44.686;10.842;2023-08-12T03:39:30;7.93;;;6.38;;
23290;SDS011;11814;44.686;10.842;2023-08-12T03:41:55;7.20;;;5.97;;
23290;SDS011;11814;44.686;10.842;2023-08-12T03:44:21;10.15;;;6.70;;
23290;SDS011;11814;44.686;10.842;2023-08-12T03:46:47;11.00;;;6.47;;
23290;SDS011;11814;44.686;10.842;2023-08-12T03:49:13;7.07;;;6.38;;
23290;SDS011;11814;44.686;10.842;2023-08-12T03:51:39;8.43;;;6.40;;
23290;SDS011;11814;44.686;10.842;2023-08-12T03:54:04;10.73;;;6.60;;
23290;SDS011;11814;44.686;10.842;2023-08-12T03:56:30;9.43;;;6.68;;
23290;SDS011;11814;44.686;10.842;2023-08-12T03:58:56;9.95;;;7.20;;
23290;SDS011;11814;44.686;10.842;2023-08-12T04:01:22;10.50;;;6.90;;
23290;SDS011;11814;44.686;10.842;2023-08-12T04:03:48;7.78;;;6.47;;
23290;SDS011;11814;44.686;10.842;2023-08-12T04:06:13;8.32;;;6.68;;
23290;SDS011;11814;44.686;10.842;2023-08-12T04:08:39;11.52;;;6.90;;
23290;SDS011;11814;44.686;10.842;2023-08-12T04:11:05;8.23;;;6.90;;
23290;SDS011;11814;44.686;10.842;2023-08-12T04:13:30;9.07;;;6.47;;
23290;SDS011;11814;44.686;10.842;2023-08-12T04:15:56;7.72;;;6.10;;
23290;SDS011;11814;44.686;10.842;2023-08-12T04:18:22;11.60;;;6.55;;
23290;SDS011;11814;44.686;10.842;2023-08-12T04:20:51;7.95;;;6.10;;
23290;SDS011;11814;44.686;10.842;2023-08-12T04:23:18;10.90;;;5.88;;
23290;SDS011;11814;44.686;10.842;2023-08-12T04:25:45;6.82;;;5.95;;
23290;SDS011;11814;44.686;10.842;2023-08-12T04:28:14;9.05;;;6.47;;
23290;SDS011;11814;44.686;10.842;2023-08-12T04:30:44;8.05;;;6.28;;
23290;SDS011;11814;44.686;10.842;2023-08-12T04:33:11;11.68;;;6.57;;
23290;SDS011;11814;44.686;10.842;2023-08-12T04:35:38;9.93;;;6.45;;
23290;SDS011;11814;44.686;10.842;2023-08-12T04:38:04;10.80;;;7.35;;
23290;SDS011;11814;44.686;10.842;2023-08-12T04:40:30;11.77;;;7.15;;
23290;SDS011;11814;44.686;10.842;2023-08-12T04:42:56;7.82;;;7.00;;
23290;SDS011;11814;44.686;10.842;2023-08-12T04:45:23;12.88;;;7.30;;
23290;SDS011;11814;44.686;10.842;2023-08-12T04:47:49;11.30;;;7.88;;
23290;SDS011;11814;44.686;10.842;2023-08-12T04:50:15;13.98;;;8.32;;
23290;SDS011;11814;44.686;10.842;2023-08-12T04:52:41;22.70;;;9.13;;
23290;SDS011;11814;44.686;10.842;2023-08-12T04:55:06;11.32;;;7.78;;
23290;SDS011;11814;44.686;10.842;2023-08-12T04:57:32;9.90;;;7.25;;
23290;SDS011;11814;44.686;10.842;2023-08-12T04:59:58;11.38;;;7.50;;
23290;SDS011;11814;44.686;10.842;2023-08-12T05:02:24;10.38;;;7.50;;
23290;SDS011;11814;44.686;10.842;2023-08-12T05:04:50;17.63;;;8.30;;
23290;SDS011;11814;44.686;10.842;2023-08-12T05:07:16;10.90;;;7.90;;
23290;SDS011;11814;44.686;10.842;2023-08-12T05:09:42;9.00;;;7.55;;
23290;SDS011;11814;44.686;10.842;2023-08-12T05:12:10;16.33;;;8.65;;
23290;SDS011;11814;44.686;10.842;2023-08-12T05:14:37;11.35;;;8.75;;
23290;SDS011;11814;44.686;10.842;2023-08-12T05:17:04;12.98;;;8.55;;
23290;SDS011;11814;44.686;10.842;2023-08-12T05:19:30;8.95;;;7.95;;
23290;SDS011;11814;44.686;10.842;2023-08-12T05:21:56;9.15;;;8.25;;
23290;SDS011;11814;44.686;10.842;2023-08-12T05:24:22;9.55;;;7.63;;
23290;SDS011;11814;44.686;10.842;2023-08-12T05:26:47;11.07;;;9.43;;
23290;SDS011;11814;44.686;10.842;2023-08-12T05:29:13;13.02;;;9.40;;
23290;SDS011;11814;44.686;10.842;2023-08-12T05:31:39;13.35;;;9.20;;
23290;SDS011;11814;44.686;10.842;2023-08-12T05:34:04;11.65;;;8.88;;
23290;SDS011;11814;44.686;10.842;2023-08-12T05:36:30;10.45;;;8.57;;
23290;SDS011;11814;44.686;10.842;2023-08-12T05:38:56;12.18;;;8.50;;
23290;SDS011;11814;44.686;10.842;2023-08-12T05:41:22;9.95;;;8.95;;
23290;SDS011;11814;44.686;10.842;2023-08-12T05:43:48;8.90;;;8.00;;
23290;SDS011;11814;44.686;10.842;2023-08-12T05:46:13;12.60;;;9.05;;
23290;SDS011;11814;44.686;10.842;2023-08-12T05:48:39;10.23;;;7.93;;
23290;SDS011;11814;44.686;10.842;2023-08-12T05:51:05;8.77;;;7.90;;
23290;SDS011;11814;44.686;10.842;2023-08-12T05:53:31;8.65;;;7.63;;
23290;SDS011;11814;44.686;10.842;2023-08-12T05:55:57;9.90;;;7.68;;
23290;SDS011;11814;44.686;10.842;2023-08-12T05:58:23;11.68;;;7.10;;
23290;SDS011;11814;44.686;10.842;2023-08-12T06:00:49;8.93;;;6.50;;
23290;SDS011;11814;44.686;10.842;2023-08-12T06:03:15;10.10;;;6.78;;
23290;SDS011;11814;44.686;10.842;2023-08-12T06:05:41;10.00;;;7.20;;
23290;SDS011;11814;44.686;10.842;2023-08-12T06:08:07;7.88;;;7.00;;
23290;SDS011;11814;44.686;10.842;2023-08-12T06:10:33;11.40;;;6.75;;
23290;SDS011;11814;44.686;10.842;2023-08-12T06:12:59;8.80;;;7.10;;
23290;SDS011;11814;44.686;10.842;2023-08-12T06:15:25;8.90;;;7.18;;
23290;SDS011;11814;44.686;10.842;2023-08-12T06:17:51;8.10;;;6.97;;
23290;SDS011;11814;44.686;10.842;2023-08-12T06:20:17;8.60;;;6.07;;
23290;SDS011;11814;44.686;10.842;2023-08-12T06:22:42;8.60;;;7.25;;
23290;SDS011;11814;44.686;10.842;2023-08-12T06:25:08;7.45;;;6.28;;
23290;SDS011;11814;44.686;10.842;2023-08-12T06:27:34;8.50;;;6.47;;
23290;SDS011;11814;44.686;10.842;2023-08-12T06:29:59;9.25;;;6.85;;
23290;SDS011;11814;44.686;10.842;2023-08-12T06:32:25;12.48;;;7.65;;
23290;SDS011;11814;44.686;10.842;2023-08-12T06:34:50;8.20;;;6.22;;
23290;SDS011;11814;44.686;10.842;2023-08-12T06:37:16;8.93;;;6.28;;
23290;SDS011;11814;44.686;10.842;2023-08-12T06:39:42;8.77;;;6.43;;
23290;SDS011;11814;44.686;10.842;2023-08-12T06:42:07;9.32;;;6.63;;
23290;SDS011;11814;44.686;10.842;2023-08-12T06:44:33;8.13;;;6.35;;
23290;SDS011;11814;44.686;10.842;2023-08-12T06:46:59;8.27;;;5.65;;
23290;SDS011;11814;44.686;10.842;2023-08-12T06:49:24;9.48;;;6.40;;
23290;SDS011;11814;44.686;10.842;2023-08-12T06:51:50;12.07;;;6.30;;
23290;SDS011;11814;44.686;10.842;2023-08-12T06:54:15;6.45;;;5.85;;
23290;SDS011;11814;44.686;10.842;2023-08-12T06:56:41;9.90;;;6.30;;
23290;SDS011;11814;44.686;10.842;2023-08-12T06:59:07;11.15;;;6.20;;
23290;SDS011;11814;44.686;10.842;2023-08-12T07:01:32;7.68;;;6.50;;
23290;SDS011;11814;44.686;10.842;2023-08-12T07:03:58;8.02;;;7.22;;
23290;SDS011;11814;44.686;10.842;2023-08-12T07:06:24;9.23;;;7.28;;
23290;SDS011;11814;44.686;10.842;2023-08-12T07:08:49;9.63;;;7.47;;
23290;SDS011;11814;44.686;10.842;2023-08-12T07:11:15;10.10;;;7.07;;
23290;SDS011;11814;44.686;10.842;2023-08-12T07:13:41;9.55;;;7.25;;
23290;SDS011;11814;44.686;10.842;2023-08-12T07:16:07;10.98;;;7.40;;
23290;SDS011;11814;44.686;10.842;2023-08-12T07:18:33;11.50;;;8.13;;
23290;SDS011;11814;44.686;10.842;2023-08-12T07:20:59;10.40;;;6.80;;
23290;SDS011;11814;44.686;10.842;2023-08-12T07:23:24;12.50;;;7.10;;
23290;SDS011;11814;44.686;10.842;2023-08-12T07:25:51;11.55;;;6.78;;
23290;SDS011;11814;44.686;10.842;2023-08-12T07:28:16;8.82;;;7.15;;
23290;SDS011;11814;44.686;10.842;2023-08-12T07:30:42;10.40;;;7.18;;
23290;SDS011;11814;44.686;10.842;2023-08-12T07:33:08;11.25;;;7.18;;
23290;SDS011;11814;44.686;10.842;2023-08-12T07:35:34;9.20;;;7.10;;
23290;SDS011;11814;44.686;10.842;2023-08-12T07:37:59;12.30;;;7.82;;
23290;SDS011;11814;44.686;10.842;2023-08-12T07:40:25;10.25;;;6.65;;
23290;SDS011;11814;44.686;10.842;2023-08-12T07:42:51;11.15;;;7.38;;
23290;SDS011;11814;44.686;10.842;2023-08-12T07:45:17;7.22;;;6.20;;
23290;SDS011;11814;44.686;10.842;2023-08-12T07:47:42;16.08;;;6.03;;
23290;SDS011;11814;44.686;10.842;2023-08-12T07:50:08;8.80;;;5.78;;
23290;SDS011;11814;44.686;10.842;2023-08-12T07:52:34;8.30;;;6.47;;
23290;SDS011;11814;44.686;10.842;2023-08-12T07:55:00;10.80;;;5.55;;
23290;SDS011;11814;44.686;10.842;2023-08-12T07:57:26;8.75;;;5.28;;
23290;SDS011;11814;44.686;10.842;2023-08-12T07:59:52;10.00;;;5.70;;
23290;SDS011;11814;44.686;10.842;2023-08-12T08:02:17;8.50;;;6.00;;
23290;SDS011;11814;44.686;10.842;2023-08-12T08:04:43;6.63;;;5.80;;
23290;SDS011;11814;44.686;10.842;2023-08-12T08:07:10;8.32;;;5.55;;
23290;SDS011;11814;44.686;10.842;2023-08-12T08:09:36;10.77;;;4.97;;
23290;SDS011;11814;44.686;10.842;2023-08-12T08:12:02;6.68;;;5.03;;
23290;SDS011;11814;44.686;10.842;2023-08-12T08:14:27;6.30;;;5.20;;
23290;SDS011;11814;44.686;10.842;2023-08-12T08:16:53;7.43;;;5.30;;
23290;SDS011;11814;44.686;10.842;2023-08-12T08:19:19;5.30;;;4.07;;
23290;SDS011;11814;44.686;10.842;2023-08-12T08:21:44;7.95;;;4.93;;
23290;SDS011;11814;44.686;10.842;2023-08-12T08:24:10;6.35;;;4.03;;
23290;SDS011;11814;44.686;10.842;2023-08-12T08:26:38;6.30;;;5.13;;
23290;SDS011;11814;44.686;10.842;2023-08-12T08:29:05;8.50;;;4.78;;
23290;SDS011;11814;44.686;10.842;2023-08-12T08:31:31;8.73;;;5.13;;
23290;SDS011;11814;44.686;10.842;2023-08-12T08:33:57;6.70;;;4.28;;
23290;SDS011;11814;44.686;10.842;2023-08-12T08:36:22;8.10;;;4.65;;
23290;SDS011;11814;44.686;10.842;2023-08-12T08:38:48;6.78;;;4.70;;
23290;SDS011;11814;44.686;10.842;2023-08-12T08:41:14;7.57;;;5.50;;
23290;SDS011;11814;44.686;10.842;2023-08-12T08:43:41;7.82;;;4.75;;
23290;SDS011;11814;44.686;10.842;2023-08-12T08:46:10;10.07;;;5.53;;
23290;SDS011;11814;44.686;10.842;2023-08-12T08:48:40;7.97;;;5.32;;
23290;SDS011;11814;44.686;10.842;2023-08-12T08:51:08;7.78;;;6.30;;
23290;SDS011;11814;44.686;10.842;2023-08-12T08:53:38;9.43;;;5.10;;
23290;SDS011;11814;44.686;10.842;2023-08-12T08:56:06;5.50;;;4.18;;
23290;SDS011;11814;44.686;10.842;2023-08-12T08:58:32;7.47;;;3.80;;
23290;SDS011;11814;44.686;10.842;2023-08-12T09:00:58;9.02;;;4.30;;
23290;SDS011;11814;44.686;10.842;2023-08-12T09:03:25;11.25;;;4.60;;
23290;SDS011;11814;44.686;10.842;2023-08-12T09:05:51;7.28;;;4.53;;
23290;SDS011;11814;44.686;10.842;2023-08-12T09:08:23;5.75;;;4.05;;
23290;SDS011;11814;44.686;10.842;2023-08-12T09:10:50;5.45;;;3.45;;
23290;SDS011;11814;44.686;10.842;2023-08-12T09:13:15;6.50;;;3.90;;
23290;SDS011;11814;44.686;10.842;2023-08-12T09:15:43;7.32;;;2.95;;
23290;SDS011;11814;44.686;10.842;2023-08-12T09:18:09;5.50;;;3.67;;
23290;SDS011;11814;44.686;10.842;2023-08-12T09:20:35;8.02;;;3.42;;
23290;SDS011;11814;44.686;10.842;2023-08-12T09:23:01;10.05;;;3.58;;
23290;SDS011;11814;44.686;10.842;2023-08-12T09:25:28;6.35;;;3.17;;
23290;SDS011;11814;44.686;10.842;2023-08-12T09:27:55;7.15;;;3.50;;
23290;SDS011;11814;44.686;10.842;2023-08-12T09:30:23;4.70;;;3.53;;
23290;SDS011;11814;44.686;10.842;2023-08-12T09:32:59;8.50;;;3.92;;
23290;SDS011;11814;44.686;10.842;2023-08-12T09:35:30;5.35;;;3.75;;
23290;SDS011;11814;44.686;10.842;2023-08-12T09:38:01;5.05;;;3.25;;
23290;SDS011;11814;44.686;10.842;2023-08-12T09:40:31;8.90;;;2.92;;
23290;SDS011;11814;44.686;10.842;2023-08-12T09:42:58;4.53;;;2.65;;
23290;SDS011;11814;44.686;10.842;2023-08-12T09:45:24;5.63;;;2.72;;
23290;SDS011;11814;44.686;10.842;2023-08-12T09:47:51;4.47;;;2.95;;
23290;SDS011;11814;44.686;10.842;2023-08-12T09:50:18;7.82;;;3.40;;
23290;SDS011;11814;44.686;10.842;2023-08-12T09:52:53;5.43;;;3.47;;
23290;SDS011;11814;44.686;10.842;2023-08-12T09:55:20;3.60;;;2.75;;
23290;SDS011;11814;44.686;10.842;2023-08-12T09:57:53;5.65;;;2.95;;
23290;SDS011;11814;44.686;10.842;2023-08-12T10:00:19;3.65;;;2.40;;
23290;SDS011;11814;44.686;10.842;2023-08-12T10:02:48;7.88;;;2.60;;
23290;SDS011;11814;44.686;10.842;2023-08-12T10:05:21;3.53;;;2.40;;
23290;SDS011;11814;44.686;10.842;2023-08-12T10:07:52;5.78;;;2.60;;
23290;SDS011;11814;44.686;10.842;2023-08-12T10:10:18;3.80;;;2.75;;
23290;SDS011;11814;44.686;10.842;2023-08-12T10:12:45;5.63;;;2.25;;
23290;SDS011;11814;44.686;10.842;2023-08-12T10:15:11;6.43;;;2.50;;
23290;SDS011;11814;44.686;10.842;2023-08-12T10:17:38;4.18;;;2.20;;
23290;SDS011;11814;44.686;10.842;2023-08-12T10:20:05;3.30;;;2.72;;
23290;SDS011;11814;44.686;10.842;2023-08-12T10:22:33;4.05;;;2.30;;
23290;SDS011;11814;44.686;10.842;2023-08-12T10:25:01;4.18;;;1.98;;
23290;SDS011;11814;44.686;10.842;2023-08-12T10:27:28;4.35;;;2.20;;
23290;SDS011;11814;44.686;10.842;2023-08-12T10:29:57;4.63;;;2.00;;
23290;SDS011;11814;44.686;10.842;2023-08-12T10:32:26;4.93;;;2.33;;
23290;SDS011;11814;44.686;10.842;2023-08-12T10:34:58;5.07;;;2.47;;
23290;SDS011;11814;44.686;10.842;2023-08-12T10:37:24;6.55;;;2.30;;
23290;SDS011;11814;44.686;10.842;2023-08-12T10:39:54;4.05;;;2.20;;
23290;SDS011;11814;44.686;10.842;2023-08-12T10:45:08;8.05;;;2.45;;
23290;SDS011;11814;44.686;10.842;2023-08-12T10:47:42;5.93;;;2.00;;
23290;SDS011;11814;44.686;10.842;2023-08-12T10:50:22;4.70;;;2.30;;
23290;SDS011;11814;44.686;10.842;2023-08-12T10:52:53;5.88;;;2.33;;
23290;SDS011;11814;44.686;10.842;2023-08-12T10:55:22;4.90;;;2.00;;
23290;SDS011;11814;44.686;10.842;2023-08-12T10:57:50;3.72;;;1.92;;
23290;SDS011;11814;44.686;10.842;2023-08-12T11:00:22;2.83;;;2.00;;
23290;SDS011;11814;44.686;10.842;2023-08-12T11:02:50;4.05;;;1.90;;
23290;SDS011;11814;44.686;10.842;2023-08-12T11:05:17;8.20;;;2.20;;
23290;SDS011;11814;44.686;10.842;2023-08-12T11:07:47;8.70;;;1.70;;
23290;SDS011;11814;44.686;10.842;2023-08-12T11:10:17;3.88;;;2.10;;
23290;SDS011;11814;44.686;10.842;2023-08-12T11:15:16;3.05;;;1.50;;
23290;SDS011;11814;44.686;10.842;2023-08-12T11:17:42;4.95;;;1.75;;
23290;SDS011;11814;44.686;10.842;2023-08-12T11:20:12;4.05;;;1.83;;
23290;SDS011;11814;44.686;10.842;2023-08-12T11:22:44;4.13;;;1.98;;
23290;SDS011;11814;44.686;10.842;2023-08-12T11:25:11;2.20;;;1.85;;
23290;SDS011;11814;44.686;10.842;2023-08-12T11:27:42;1.98;;;1.70;;
23290;SDS011;11814;44.686;10.842;2023-08-12T11:30:09;3.85;;;1.70;;
23290;SDS011;11814;44.686;10.842;2023-08-12T11:32:39;5.10;;;2.22;;
23290;SDS011;11814;44.686;10.842;2023-08-12T11:35:06;3.13;;;1.73;;
23290;SDS011;11814;44.686;10.842;2023-08-12T11:37:34;4.13;;;1.73;;
23290;SDS011;11814;44.686;10.842;2023-08-12T11:40:02;3.17;;;1.70;;
23290;SDS011;11814;44.686;10.842;2023-08-12T11:42:29;3.92;;;1.60;;
23290;SDS011;11814;44.686;10.842;2023-08-12T11:44:55;1.75;;;1.45;;
23290;SDS011;11814;44.686;10.842;2023-08-12T11:47:21;4.45;;;1.80;;
23290;SDS011;11814;44.686;10.842;2023-08-12T11:49:46;5.05;;;1.63;;
23290;SDS011;11814;44.686;10.842;2023-08-12T11:52:12;1.70;;;1.40;;
23290;SDS011;11814;44.686;10.842;2023-08-12T11:54:38;3.40;;;1.50;;
23290;SDS011;11814;44.686;10.842;2023-08-12T11:57:04;7.05;;;1.70;;
23290;SDS011;11814;44.686;10.842;2023-08-12T11:59:31;5.22;;;1.80;;
23290;SDS011;11814;44.686;10.842;2023-08-12T12:01:56;2.20;;;1.70;;
23290;SDS011;11814;44.686;10.842;2023-08-12T12:04:22;5.47;;;1.80;;
23290;SDS011;11814;44.686;10.842;2023-08-12T12:06:48;3.75;;;2.13;;
23290;SDS011;11814;44.686;10.842;2023-08-12T12:09:14;6.05;;;1.63;;
23290;SDS011;11814;44.686;10.842;2023-08-12T12:11:43;2.20;;;1.70;;
23290;SDS011;11814;44.686;10.842;2023-08-12T12:14:09;3.80;;;1.85;;
23290;SDS011;11814;44.686;10.842;2023-08-12T12:16:45;4.85;;;1.70;;
23290;SDS011;11814;44.686;10.842;2023-08-12T12:19:15;1.67;;;1.30;;
23290;SDS011;11814;44.686;10.842;2023-08-12T12:21:45;3.55;;;1.90;;
23290;SDS011;11814;44.686;10.842;2023-08-12T12:24:15;2.63;;;1.52;;
23290;SDS011;11814;44.686;10.842;2023-08-12T12:26:42;2.72;;;1.70;;
23290;SDS011;11814;44.686;10.842;2023-08-12T12:29:09;4.07;;;1.42;;
23290;SDS011;11814;44.686;10.842;2023-08-12T12:31:39;3.92;;;1.73;;
23290;SDS011;11814;44.686;10.842;2023-08-12T12:34:05;3.08;;;1.70;;
23290;SDS011;11814;44.686;10.842;2023-08-12T12:36:32;3.80;;;1.75;;
23290;SDS011;11814;44.686;10.842;2023-08-12T12:39:03;3.83;;;1.70;;
23290;SDS011;11814;44.686;10.842;2023-08-12T12:41:29;3.35;;;1.33;;
23290;SDS011;11814;44.686;10.842;2023-08-12T12:43:55;3.20;;;1.45;;
23290;SDS011;11814;44.686;10.842;2023-08-12T12:46:21;3.13;;;1.70;;
23290;SDS011;11814;44.686;10.842;2023-08-12T12:48:46;5.13;;;1.73;;
23290;SDS011;11814;44.686;10.842;2023-08-12T12:51:12;6.80;;;1.77;;
23290;SDS011;11814;44.686;10.842;2023-08-12T12:53:38;3.30;;;1.65;;
23290;SDS011;11814;44.686;10.842;2023-08-12T12:56:05;4.47;;;1.60;;
23290;SDS011;11814;44.686;10.842;2023-08-12T12:58:34;4.05;;;1.70;;
23290;SDS011;11814;44.686;10.842;2023-08-12T13:01:01;2.40;;;1.70;;
23290;SDS011;11814;44.686;10.842;2023-08-12T13:03:27;2.45;;;1.60;;
23290;SDS011;11814;44.686;10.842;2023-08-12T13:05:53;2.15;;;1.40;;
23290;SDS011;11814;44.686;10.842;2023-08-12T13:08:19;4.03;;;1.67;;
23290;SDS011;11814;44.686;10.842;2023-08-12T13:10:45;2.55;;;1.65;;
23290;SDS011;11814;44.686;10.842;2023-08-12T13:13:12;2.83;;;1.30;;
23290;SDS011;11814;44.686;10.842;2023-08-12T13:15:40;3.25;;;1.55;;
23290;SDS011;11814;44.686;10.842;2023-08-12T13:18:06;4.30;;;1.67;;
23290;SDS011;11814;44.686;10.842;2023-08-12T13:20:31;2.80;;;1.40;;
23290;SDS011;11814;44.686;10.842;2023-08-12T13:22:57;2.80;;;1.55;;
23290;SDS011;11814;44.686;10.842;2023-08-12T13:25:23;5.93;;;1.50;;
23290;SDS011;11814;44.686;10.842;2023-08-12T13:27:48;4.43;;;1.58;;
23290;SDS011;11814;44.686;10.842;2023-08-12T13:30:14;4.72;;;1.40;;
23290;SDS011;11814;44.686;10.842;2023-08-12T13:32:39;5.82;;;1.70;;
23290;SDS011;11814;44.686;10.842;2023-08-12T13:35:05;4.80;;;1.65;;
23290;SDS011;11814;44.686;10.842;2023-08-12T13:37:32;3.88;;;1.60;;
23290;SDS011;11814;44.686;10.842;2023-08-12T13:39:58;3.78;;;1.33;;
23290;SDS011;11814;44.686;10.842;2023-08-12T13:42:24;6.38;;;1.85;;
23290;SDS011;11814;44.686;10.842;2023-08-12T13:44:49;3.05;;;1.60;;
23290;SDS011;11814;44.686;10.842;2023-08-12T13:47:15;3.50;;;1.52;;
23290;SDS011;11814;44.686;10.842;2023-08-12T13:49:40;4.70;;;1.50;;
23290;SDS011;11814;44.686;10.842;2023-08-12T13:52:06;4.10;;;1.48;;
23290;SDS011;11814;44.686;10.842;2023-08-12T13:54:32;2.55;;;1.42;;
23290;SDS011;11814;44.686;10.842;2023-08-12T13:56:59;3.78;;;1.50;;
23290;SDS011;11814;44.686;10.842;2023-08-12T13:59:24;4.03;;;1.70;;
23290;SDS011;11814;44.686;10.842;2023-08-12T14:01:50;3.35;;;1.90;;
23290;SDS011;11814;44.686;10.842;2023-08-12T14:04:16;3.55;;;1.27;;
23290;SDS011;11814;44.686;10.842;2023-08-12T14:06:41;4.07;;;1.48;;
23290;SDS011;11814;44.686;10.842;2023-08-12T14:09:08;1.80;;;1.20;;
23290;SDS011;11814;44.686;10.842;2023-08-12T14:11:34;2.65;;;1.40;;
23290;SDS011;11814;44.686;10.842;2023-08-12T14:14:00;4.25;;;1.60;;
23290;SDS011;11814;44.686;10.842;2023-08-12T14:16:26;3.05;;;1.60;;
23290;SDS011;11814;44.686;10.842;2023-08-12T14:18:51;5.35;;;1.58;;
23290;SDS011;11814;44.686;10.842;2023-08-12T14:21:17;6.88;;;1.73;;
23290;SDS011;11814;44.686;10.842;2023-08-12T14:23:43;6.43;;;1.58;;
23290;SDS011;11814;44.686;10.842;2023-08-12T14:26:08;4.78;;;2.05;;
23290;SDS011;11814;44.686;10.842;2023-08-12T14:28:34;14.88;;;1.95;;
23290;SDS011;11814;44.686;10.842;2023-08-12T14:30:59;2.97;;;1.52;;
23290;SDS011;11814;44.686;10.842;2023-08-12T14:33:25;2.80;;;1.60;;
23290;SDS011;11814;44.686;10.842;2023-08-12T14:35:51;3.50;;;1.58;;
23290;SDS011;11814;44.686;10.842;2023-08-12T14:38:19;5.70;;;1.50;;